Terminal Aerodrome Forecast
Issued by NWS

Home | Current Version | Previous Version | Text Only | Print | Product List | Glossary On
Versions: 1 2 3 4 5 6 7 8 9 10 11 12 13 14 15 16 17
000
FTUS44 KBMX 011100 RRA
TAFMGM
TAF
KMGM 011146Z 0112/0212 08008KT 6SM BR OVC007
     FM011700 09006KT 6SM BR OVC010
     FM020500 11004KT 6SM BR OVC007=

USA.gov is the U.S. government's official web portal to all federal, state and local government web resources and services.